< < Back
Terminal Aerodrome Forecast


Current Version              Previous Versions:   1  2  3  4  5  6  7  8  9  

Terminal Aerodrome Forecast

958
FTUS44 KMOB 180500 RRA
TAFMOB
TAF
KMOB 180555Z 1806/1906 07009KT 4SM RA BR SCT045 BKN070 OVC100
     FM181300 05015G22KT 4SM BR OVC008
     FM181600 03016G22KT P6SM BKN050=

Latest METAR

817
SAUS80 KWBC 180500 CCA
MTRMOB
METAR KMOB 180456Z AUTO 07009KT 4SM RA BR SCT047 BKN065 OVC100 16/16
A3017 RMK AO2 SLP215 P0013 T01560156


USA.gov is the U.S. government's official web portal to all federal, state and local government web resources and services.